sensor_id;sensor_type;location;lat;lon;timestamp;pressure;altitude;pressure_sealevel;temperature;humidity
12666;BME280;58531;59.050;17.416;2023-04-30T00:01:25;100196.75;;;1.23;100.00
12666;BME280;58531;59.050;17.416;2023-04-30T00:03:52;100203.16;;;1.15;100.00
12666;BME280;58531;59.050;17.416;2023-04-30T00:06:18;100202.78;;;1.13;100.00
12666;BME280;58531;59.050;17.416;2023-04-30T00:08:47;100204.28;;;1.14;100.00
12666;BME280;58531;59.050;17.416;2023-04-30T00:11:13;100205.72;;;1.25;100.00
12666;BME280;58531;59.050;17.416;2023-04-30T00:13:40;100214.38;;;1.26;100.00
12666;BME280;58531;59.050;17.416;2023-04-30T00:16:08;100213.59;;;1.29;100.00
12666;BME280;58531;59.050;17.416;2023-04-30T00:18:35;100221.47;;;1.39;100.00
12666;BME280;58531;59.050;17.416;2023-04-30T00:21:03;100218.03;;;1.46;100.00
12666;BME280;58531;59.050;17.416;2023-04-30T00:23:29;100220.66;;;1.53;100.00
12666;BME280;58531;59.050;17.416;2023-04-30T00:25:58;100214.63;;;1.56;100.00
12666;BME280;58531;59.050;17.416;2023-04-30T00:28:25;100227.34;;;1.68;100.00
12666;BME280;58531;59.050;17.416;2023-04-30T00:30:51;100231.94;;;1.50;100.00
12666;BME280;58531;59.050;17.416;2023-04-30T00:33:18;100228.91;;;1.55;100.00
12666;BME280;58531;59.050;17.416;2023-04-30T00:35:45;100233.41;;;1.58;100.00
12666;BME280;58531;59.050;17.416;2023-04-30T00:38:12;100234.53;;;1.57;100.00
12666;BME280;58531;59.050;17.416;2023-04-30T00:40:39;100236.47;;;1.46;100.00
12666;BME280;58531;59.050;17.416;2023-04-30T00:43:08;100234.63;;;1.32;100.00
12666;BME280;58531;59.050;17.416;2023-04-30T00:45:35;100238.84;;;1.16;100.00
12666;BME280;58531;59.050;17.416;2023-04-30T00:48:02;100242.22;;;1.20;100.00
12666;BME280;58531;59.050;17.416;2023-04-30T00:50:29;100241.09;;;1.07;100.00
12666;BME280;58531;59.050;17.416;2023-04-30T00:52:56;100235.13;;;1.00;100.00
12666;BME280;58531;59.050;17.416;2023-04-30T00:55:24;100238.88;;;1.02;100.00
12666;BME280;58531;59.050;17.416;2023-04-30T00:57:51;100232.13;;;0.91;100.00
12666;BME280;58531;59.050;17.416;2023-04-30T01:00:20;100235.53;;;0.81;100.00
12666;BME280;58531;59.050;17.416;2023-04-30T01:02:48;100238.94;;;0.67;100.00
12666;BME280;58531;59.050;17.416;2023-04-30T01:05:15;100246.44;;;0.72;100.00
12666;BME280;58531;59.050;17.416;2023-04-30T01:07:42;100235.94;;;0.65;100.00
12666;BME280;58531;59.050;17.416;2023-04-30T01:10:11;100243.44;;;0.49;100.00
12666;BME280;58531;59.050;17.416;2023-04-30T01:12:43;100253.19;;;0.38;100.00
12666;BME280;58531;59.050;17.416;2023-04-30T01:15:17;100250.94;;;0.58;100.00
12666;BME280;58531;59.050;17.416;2023-04-30T01:17:54;100256.94;;;0.58;100.00
12666;BME280;58531;59.050;17.416;2023-04-30T01:20:22;100258.81;;;0.58;100.00
12666;BME280;58531;59.050;17.416;2023-04-30T01:22:55;100259.56;;;0.44;100.00
12666;BME280;58531;59.050;17.416;2023-04-30T01:25:52;100268.97;;;0.52;100.00
12666;BME280;58531;59.050;17.416;2023-04-30T01:28:27;100267.44;;;0.37;100.00
12666;BME280;58531;59.050;17.416;2023-04-30T01:30:54;100270.06;;;0.23;100.00
12666;BME280;58531;59.050;17.416;2023-04-30T01:33:21;100274.94;;;0.28;100.00
12666;BME280;58531;59.050;17.416;2023-04-30T01:36:10;100282.44;;;0.26;100.00
12666;BME280;58531;59.050;17.416;2023-04-30T01:38:59;100281.31;;;0.41;100.00
12666;BME280;58531;59.050;17.416;2023-04-30T01:41:32;100277.22;;;0.51;100.00
12666;BME280;58531;59.050;17.416;2023-04-30T01:44:11;100279.09;;;0.40;100.00
12666;BME280;58531;59.050;17.416;2023-04-30T01:46:42;100280.19;;;0.35;100.00
12666;BME280;58531;59.050;17.416;2023-04-30T01:49:18;100283.19;;;0.55;100.00
12666;BME280;58531;59.050;17.416;2023-04-30T01:51:47;100285.06;;;0.33;100.00
12666;BME280;58531;59.050;17.416;2023-04-30T01:54:18;100286.97;;;0.33;100.00
12666;BME280;58531;59.050;17.416;2023-04-30T01:56:54;100292.97;;;0.37;100.00
12666;BME280;58531;59.050;17.416;2023-04-30T01:59:31;100292.94;;;0.26;100.00
12666;BME280;58531;59.050;17.416;2023-04-30T02:01:58;100283.59;;;0.36;100.00
12666;BME280;58531;59.050;17.416;2023-04-30T02:04:25;100283.94;;;0.34;100.00
12666;BME280;58531;59.050;17.416;2023-04-30T02:06:52;100292.22;;;0.43;100.00
12666;BME280;58531;59.050;17.416;2023-04-30T02:09:19;100287.72;;;0.47;100.00
12666;BME280;58531;59.050;17.416;2023-04-30T02:11:48;100295.94;;;0.28;100.00
12666;BME280;58531;59.050;17.416;2023-04-30T02:14:15;100300.06;;;0.36;100.00
12666;BME280;58531;59.050;17.416;2023-04-30T02:16:43;100304.94;;;0.27;100.00
12666;BME280;58531;59.050;17.416;2023-04-30T02:19:10;100301.19;;;0.28;100.00
12666;BME280;58531;59.050;17.416;2023-04-30T02:21:37;100309.47;;;0.23;100.00
12666;BME280;58531;59.050;17.416;2023-04-30T02:24:04;100298.53;;;0.07;100.00
12666;BME280;58531;59.050;17.416;2023-04-30T02:26:31;100303.41;;;0.09;100.00
12666;BME280;58531;59.050;17.416;2023-04-30T02:28:58;100303.78;;;-0.03;100.00
12666;BME280;58531;59.050;17.416;2023-04-30T02:31:25;100304.09;;;-0.11;100.00
12666;BME280;58531;59.050;17.416;2023-04-30T02:33:53;100306.38;;;-0.10;100.00
12666;BME280;58531;59.050;17.416;2023-04-30T02:36:20;100311.56;;;-0.20;100.00
12666;BME280;58531;59.050;17.416;2023-04-30T02:38:47;100308.56;;;-0.22;100.00
12666;BME280;58531;59.050;17.416;2023-04-30T02:41:14;100313.09;;;-0.16;100.00
12666;BME280;58531;59.050;17.416;2023-04-30T02:43:40;100321.28;;;-0.31;100.00
12666;BME280;58531;59.050;17.416;2023-04-30T02:46:07;100322.34;;;-0.43;100.00
12666;BME280;58531;59.050;17.416;2023-04-30T02:48:34;100321.56;;;-0.54;100.00
12666;BME280;58531;59.050;17.416;2023-04-30T02:51:02;100330.94;;;-0.49;100.00
12666;BME280;58531;59.050;17.416;2023-04-30T02:53:30;100336.56;;;-0.47;100.00
12666;BME280;58531;59.050;17.416;2023-04-30T02:55:56;100332.16;;;-0.22;100.00
12666;BME280;58531;59.050;17.416;2023-04-30T02:58:24;100336.31;;;-0.18;100.00
12666;BME280;58531;59.050;17.416;2023-04-30T03:00:51;100336.72;;;-0.16;100.00
12666;BME280;58531;59.050;17.416;2023-04-30T03:03:17;100340.78;;;-0.29;100.00
12666;BME280;58531;59.050;17.416;2023-04-30T03:05:44;100342.25;;;-0.35;100.00
12666;BME280;58531;59.050;17.416;2023-04-30T03:08:13;100335.19;;;-0.24;100.00
12666;BME280;58531;59.050;17.416;2023-04-30T03:10:40;100344.16;;;-0.21;100.00
12666;BME280;58531;59.050;17.416;2023-04-30T03:13:06;100344.50;;;-0.30;100.00
12666;BME280;58531;59.050;17.416;2023-04-30T03:15:33;100356.16;;;-0.27;100.00
12666;BME280;58531;59.050;17.416;2023-04-30T03:18:00;100349.78;;;-0.19;100.00
12666;BME280;58531;59.050;17.416;2023-04-30T03:20:28;100348.28;;;-0.24;100.00
12666;BME280;58531;59.050;17.416;2023-04-30T03:22:55;100351.22;;;-0.36;100.00
12666;BME280;58531;59.050;17.416;2023-04-30T03:25:23;100351.28;;;-0.25;100.00
12666;BME280;58531;59.050;17.416;2023-04-30T03:27:50;100354.66;;;-0.25;100.00
12666;BME280;58531;59.050;17.416;2023-04-30T03:30:17;100348.69;;;-0.18;100.00
12666;BME280;58531;59.050;17.416;2023-04-30T03:32:44;100358.13;;;-0.07;100.00
12666;BME280;58531;59.050;17.416;2023-04-30T03:35:11;100349.97;;;0.29;100.00
12666;BME280;58531;59.050;17.416;2023-04-30T03:37:37;100347.00;;;0.41;100.00
12666;BME280;58531;59.050;17.416;2023-04-30T03:40:06;100351.50;;;0.51;98.89
12666;BME280;58531;59.050;17.416;2023-04-30T03:42:34;100356.38;;;0.46;99.21
12666;BME280;58531;59.050;17.416;2023-04-30T03:45:01;100358.25;;;0.56;98.66
12666;BME280;58531;59.050;17.416;2023-04-30T03:47:28;100368.41;;;0.61;98.38
12666;BME280;58531;59.050;17.416;2023-04-30T03:49:55;100363.16;;;0.68;97.86
12666;BME280;58531;59.050;17.416;2023-04-30T03:52:22;100359.78;;;0.60;99.09
12666;BME280;58531;59.050;17.416;2023-04-30T03:54:49;100362.41;;;0.64;99.09
12666;BME280;58531;59.050;17.416;2023-04-30T03:57:16;100364.28;;;0.67;99.23
12666;BME280;58531;59.050;17.416;2023-04-30T03:59:44;100378.56;;;0.80;98.41
12666;BME280;58531;59.050;17.416;2023-04-30T04:02:11;100373.31;;;0.87;99.68
12666;BME280;58531;59.050;17.416;2023-04-30T04:04:38;100382.28;;;1.52;98.11
12666;BME280;58531;59.050;17.416;2023-04-30T04:07:05;100386.81;;;3.02;87.53
12666;BME280;58531;59.050;17.416;2023-04-30T04:09:32;100384.28;;;4.02;87.33
12666;BME280;58531;59.050;17.416;2023-04-30T04:11:59;100390.44;;;5.24;76.86
12666;BME280;58531;59.050;17.416;2023-04-30T04:14:27;100391.22;;;6.25;70.76
12666;BME280;58531;59.050;17.416;2023-04-30T04:16:55;100389.91;;;7.00;64.54
12666;BME280;58531;59.050;17.416;2023-04-30T04:19:24;100397.28;;;6.93;64.31
12666;BME280;58531;59.050;17.416;2023-04-30T04:21:51;100401.44;;;6.78;61.97
12666;BME280;58531;59.050;17.416;2023-04-30T04:24:18;100399.88;;;6.96;60.36
12666;BME280;58531;59.050;17.416;2023-04-30T04:26:45;100412.06;;;7.25;59.47
12666;BME280;58531;59.050;17.416;2023-04-30T04:29:12;100418.69;;;7.33;61.15
12666;BME280;58531;59.050;17.416;2023-04-30T04:31:38;100411.50;;;6.51;62.16
12666;BME280;58531;59.050;17.416;2023-04-30T04:34:08;100415.56;;;6.20;62.86
12666;BME280;58531;59.050;17.416;2023-04-30T04:36:35;100413.94;;;6.26;62.39
12666;BME280;58531;59.050;17.416;2023-04-30T04:39:02;100417.91;;;6.53;63.46
12666;BME280;58531;59.050;17.416;2023-04-30T04:41:29;100415.75;;;6.48;62.62
12666;BME280;58531;59.050;17.416;2023-04-30T04:43:57;100425.38;;;6.39;62.85
12666;BME280;58531;59.050;17.416;2023-04-30T04:46:24;100425.91;;;5.95;64.18
12666;BME280;58531;59.050;17.416;2023-04-30T04:48:52;100423.66;;;5.93;62.18
12666;BME280;58531;59.050;17.416;2023-04-30T04:51:20;100422.19;;;6.47;61.49
12666;BME280;58531;59.050;17.416;2023-04-30T04:53:47;100425.94;;;7.01;59.04
12666;BME280;58531;59.050;17.416;2023-04-30T04:56:14;100429.16;;;7.24;56.93
12666;BME280;58531;59.050;17.416;2023-04-30T04:58:42;100436.16;;;7.91;56.25
12666;BME280;58531;59.050;17.416;2023-04-30T05:01:10;100436.28;;;8.00;55.87
12666;BME280;58531;59.050;17.416;2023-04-30T05:03:36;100441.75;;;9.00;53.50
12666;BME280;58531;59.050;17.416;2023-04-30T05:06:04;100438.16;;;9.86;48.93
12666;BME280;58531;59.050;17.416;2023-04-30T05:08:32;100452.09;;;9.90;49.65
12666;BME280;58531;59.050;17.416;2023-04-30T05:10:59;100445.97;;;10.24;48.44
12666;BME280;58531;59.050;17.416;2023-04-30T05:13:26;100445.41;;;10.07;48.08
12666;BME280;58531;59.050;17.416;2023-04-30T05:15:53;100449.53;;;9.87;46.32
12666;BME280;58531;59.050;17.416;2023-04-30T05:18:20;100451.78;;;9.67;49.46
12666;BME280;58531;59.050;17.416;2023-04-30T05:20:47;100461.31;;;10.62;48.14
12666;BME280;58531;59.050;17.416;2023-04-30T05:23:14;100460.69;;;10.89;46.42
12666;BME280;58531;59.050;17.416;2023-04-30T05:25:42;100463.53;;;11.43;43.38
12666;BME280;58531;59.050;17.416;2023-04-30T05:28:10;100462.59;;;10.28;45.27
12666;BME280;58531;59.050;17.416;2023-04-30T05:30:37;100467.41;;;9.77;47.79
12666;BME280;58531;59.050;17.416;2023-04-30T05:33:03;100482.41;;;9.50;47.03
12666;BME280;58531;59.050;17.416;2023-04-30T05:35:30;100483.88;;;9.63;49.05
12666;BME280;58531;59.050;17.416;2023-04-30T05:38:00;100476.53;;;9.89;47.73
12666;BME280;58531;59.050;17.416;2023-04-30T05:40:27;100476.88;;;10.12;49.48
12666;BME280;58531;59.050;17.416;2023-04-30T05:42:55;100491.94;;;11.58;44.52
12666;BME280;58531;59.050;17.416;2023-04-30T05:45:22;100489.38;;;10.67;44.47
12666;BME280;58531;59.050;17.416;2023-04-30T05:47:49;100501.78;;;11.97;44.37
12666;BME280;58531;59.050;17.416;2023-04-30T05:50:16;100501.31;;;12.07;43.73
12666;BME280;58531;59.050;17.416;2023-04-30T05:52:43;100501.69;;;12.60;41.87
12666;BME280;58531;59.050;17.416;2023-04-30T05:55:10;100507.88;;;11.88;44.20
12666;BME280;58531;59.050;17.416;2023-04-30T05:57:36;100515.75;;;12.96;42.52
12666;BME280;58531;59.050;17.416;2023-04-30T06:00:06;100519.88;;;12.29;41.28
12666;BME280;58531;59.050;17.416;2023-04-30T06:02:33;100520.66;;;12.38;40.50
12666;BME280;58531;59.050;17.416;2023-04-30T06:05:00;100521.25;;;12.42;43.47
12666;BME280;58531;59.050;17.416;2023-04-30T06:07:27;100517.03;;;12.50;39.63
12666;BME280;58531;59.050;17.416;2023-04-30T06:09:55;100517.69;;;12.27;42.68
12666;BME280;58531;59.050;17.416;2023-04-30T06:12:22;100521.97;;;12.43;42.31
12666;BME280;58531;59.050;17.416;2023-04-30T06:14:49;100521.53;;;11.99;42.82
12666;BME280;58531;59.050;17.416;2023-04-30T06:17:17;100522.50;;;13.71;39.16
12666;BME280;58531;59.050;17.416;2023-04-30T06:19:44;100527.34;;;13.34;40.06
12666;BME280;58531;59.050;17.416;2023-04-30T06:22:12;100522.63;;;12.97;38.54
12666;BME280;58531;59.050;17.416;2023-04-30T06:24:38;100526.00;;;12.02;41.57
12666;BME280;58531;59.050;17.416;2023-04-30T06:27:05;100524.81;;;12.30;41.79
12666;BME280;58531;59.050;17.416;2023-04-30T06:29:32;100516.22;;;11.90;42.70
12666;BME280;58531;59.050;17.416;2023-04-30T06:31:59;100524.50;;;11.75;42.07
12666;BME280;58531;59.050;17.416;2023-04-30T06:34:27;100529.28;;;12.15;42.03
12666;BME280;58531;59.050;17.416;2023-04-30T06:36:54;100529.28;;;12.15;41.13
12666;BME280;58531;59.050;17.416;2023-04-30T06:39:21;100527.16;;;11.66;42.74
12666;BME280;58531;59.050;17.416;2023-04-30T06:41:47;100541.47;;;11.98;41.07
12666;BME280;58531;59.050;17.416;2023-04-30T06:44:15;100538.81;;;12.34;41.72
12666;BME280;58531;59.050;17.416;2023-04-30T06:46:43;100547.25;;;12.33;42.58
12666;BME280;58531;59.050;17.416;2023-04-30T06:49:10;100540.28;;;11.99;41.41
12666;BME280;58531;59.050;17.416;2023-04-30T06:51:41;100541.53;;;11.50;43.12
12666;BME280;58531;59.050;17.416;2023-04-30T06:54:08;100552.19;;;12.25;41.84
12666;BME280;58531;59.050;17.416;2023-04-30T06:56:35;100554.84;;;12.07;43.11
12666;BME280;58531;59.050;17.416;2023-04-30T06:59:02;100547.00;;;12.22;41.50
12666;BME280;58531;59.050;17.416;2023-04-30T07:01:29;100542.00;;;11.58;43.13
12666;BME280;58531;59.050;17.416;2023-04-30T07:03:56;100552.78;;;12.02;42.76
12666;BME280;58531;59.050;17.416;2023-04-30T07:06:23;100549.78;;;12.54;43.62
12666;BME280;58531;59.050;17.416;2023-04-30T07:08:51;100560.63;;;13.19;39.74
12666;BME280;58531;59.050;17.416;2023-04-30T07:11:18;100559.91;;;14.21;39.53
12666;BME280;58531;59.050;17.416;2023-04-30T07:13:44;100561.84;;;14.20;40.47
12666;BME280;58531;59.050;17.416;2023-04-30T07:16:11;100565.31;;;14.35;36.50
12666;BME280;58531;59.050;17.416;2023-04-30T07:18:38;100571.00;;;13.91;39.64
12666;BME280;58531;59.050;17.416;2023-04-30T07:21:05;100578.97;;;13.20;39.81
12666;BME280;58531;59.050;17.416;2023-04-30T07:23:33;100574.47;;;12.67;41.84
12666;BME280;58531;59.050;17.416;2023-04-30T07:26:01;100582.81;;;12.15;40.74
12666;BME280;58531;59.050;17.416;2023-04-30T07:28:28;100580.56;;;11.39;43.16
12666;BME280;58531;59.050;17.416;2023-04-30T07:30:55;100582.69;;;12.19;44.40
12666;BME280;58531;59.050;17.416;2023-04-30T07:33:21;100589.75;;;13.02;41.45
12666;BME280;58531;59.050;17.416;2023-04-30T07:35:48;100581.91;;;12.63;40.12
12666;BME280;58531;59.050;17.416;2023-04-30T07:38:16;100597.94;;;13.40;39.51
12666;BME280;58531;59.050;17.416;2023-04-30T07:40:43;100604.84;;;13.65;39.92
12666;BME280;58531;59.050;17.416;2023-04-30T07:43:12;100588.75;;;12.64;39.96
12666;BME280;58531;59.050;17.416;2023-04-30T07:45:38;100607.50;;;12.82;39.78
12666;BME280;58531;59.050;17.416;2023-04-30T07:48:06;100597.09;;;12.75;40.98
12666;BME280;58531;59.050;17.416;2023-04-30T07:50:33;100605.84;;;13.02;42.81
12666;BME280;58531;59.050;17.416;2023-04-30T07:53:01;100604.22;;;12.06;43.92
12666;BME280;58531;59.050;17.416;2023-04-30T07:55:29;100606.84;;;11.10;47.07
12666;BME280;58531;59.050;17.416;2023-04-30T07:57:56;100613.47;;;10.75;47.94
12666;BME280;58531;59.050;17.416;2023-04-30T08:00:24;100609.91;;;10.01;48.91
12666;BME280;58531;59.050;17.416;2023-04-30T08:02:53;100612.16;;;9.65;51.53
12666;BME280;58531;59.050;17.416;2023-04-30T08:05:20;100625.84;;;9.55;50.39
12666;BME280;58531;59.050;17.416;2023-04-30T08:07:47;100623.38;;;9.36;50.39
12666;BME280;58531;59.050;17.416;2023-04-30T08:10:14;100618.69;;;9.64;51.38
12666;BME280;58531;59.050;17.416;2023-04-30T08:12:41;100628.38;;;9.46;50.81
12666;BME280;58531;59.050;17.416;2023-04-30T08:15:08;100617.72;;;9.34;47.55
12666;BME280;58531;59.050;17.416;2023-04-30T08:17:36;100634.97;;;9.17;49.34
12666;BME280;58531;59.050;17.416;2023-04-30T08:20:04;100631.56;;;9.16;50.73
12666;BME280;58531;59.050;17.416;2023-04-30T08:22:32;100635.97;;;9.72;53.26
12666;BME280;58531;59.050;17.416;2023-04-30T08:24:58;100638.63;;;9.72;51.23
12666;BME280;58531;59.050;17.416;2023-04-30T08:27:26;100645.97;;;9.93;51.41
12666;BME280;58531;59.050;17.416;2023-04-30T08:29:53;100637.00;;;9.87;49.54
12666;BME280;58531;59.050;17.416;2023-04-30T08:32:20;100643.81;;;9.26;47.99
12666;BME280;58531;59.050;17.416;2023-04-30T08:34:48;100643.47;;;8.99;47.83
12666;BME280;58531;59.050;17.416;2023-04-30T08:37:15;100645.44;;;9.24;48.73
12666;BME280;58531;59.050;17.416;2023-04-30T08:39:41;100649.19;;;8.98;50.82
12666;BME280;58531;59.050;17.416;2023-04-30T08:42:12;100660.56;;;8.86;53.43
12666;BME280;58531;59.050;17.416;2023-04-30T08:44:40;100657.09;;;9.01;50.68
12666;BME280;58531;59.050;17.416;2023-04-30T08:47:09;100662.13;;;9.12;51.49
12666;BME280;58531;59.050;17.416;2023-04-30T08:49:37;100668.69;;;9.36;51.04
12666;BME280;58531;59.050;17.416;2023-04-30T08:52:05;100662.81;;;8.87;47.99
12666;BME280;58531;59.050;17.416;2023-04-30T08:54:34;100664.09;;;8.38;51.31
12666;BME280;58531;59.050;17.416;2023-04-30T08:57:01;100674.34;;;8.68;50.48
12666;BME280;58531;59.050;17.416;2023-04-30T08:59:29;100683.44;;;9.12;51.10
12666;BME280;58531;59.050;17.416;2023-04-30T09:01:56;100679.63;;;8.84;48.88
12666;BME280;58531;59.050;17.416;2023-04-30T09:04:23;100686.41;;;8.73;48.51
12666;BME280;58531;59.050;17.416;2023-04-30T09:06:51;100686.81;;;8.27;49.45
12666;BME280;58531;59.050;17.416;2023-04-30T09:09:27;100687.97;;;8.26;50.38
12666;BME280;58531;59.050;17.416;2023-04-30T09:12:10;100693.09;;;8.49;52.09
12666;BME280;58531;59.050;17.416;2023-04-30T09:14:38;100699.69;;;8.28;49.70
12666;BME280;58531;59.050;17.416;2023-04-30T09:17:06;100699.00;;;8.24;52.36
12666;BME280;58531;59.050;17.416;2023-04-30T09:19:34;100703.84;;;8.90;50.97
12666;BME280;58531;59.050;17.416;2023-04-30T09:22:19;100705.78;;;8.73;48.44
12666;BME280;58531;59.050;17.416;2023-04-30T09:24:48;100711.06;;;9.18;48.36
12666;BME280;58531;59.050;17.416;2023-04-30T09:27:17;100716.69;;;9.48;47.72
12666;BME280;58531;59.050;17.416;2023-04-30T09:29:44;100702.81;;;9.78;46.25
12666;BME280;58531;59.050;17.416;2023-04-30T09:32:11;100704.53;;;9.47;43.34
12666;BME280;58531;59.050;17.416;2023-04-30T09:34:39;100710.19;;;9.61;46.11
12666;BME280;58531;59.050;17.416;2023-04-30T09:37:08;100712.19;;;9.57;44.67
12666;BME280;58531;59.050;17.416;2023-04-30T09:39:47;100715.06;;;9.38;44.90
12666;BME280;58531;59.050;17.416;2023-04-30T09:42:15;100706.84;;;9.33;47.07
12666;BME280;58531;59.050;17.416;2023-04-30T09:44:42;100718.19;;;9.74;50.07
12666;BME280;58531;59.050;17.416;2023-04-30T09:47:13;100707.75;;;10.63;45.92
12666;BME280;58531;59.050;17.416;2023-04-30T09:49:41;100721.34;;;10.56;42.41
12666;BME280;58531;59.050;17.416;2023-04-30T09:52:10;100714.03;;;10.69;41.70
12666;BME280;58531;59.050;17.416;2023-04-30T09:54:37;100719.25;;;11.06;41.71
12666;BME280;58531;59.050;17.416;2023-04-30T09:57:09;100727.78;;;10.80;40.74
12666;BME280;58531;59.050;17.416;2023-04-30T09:59:36;100738.97;;;10.54;41.87
12666;BME280;58531;59.050;17.416;2023-04-30T10:02:05;100733.81;;;10.13;40.74
12666;BME280;58531;59.050;17.416;2023-04-30T10:04:33;100733.78;;;10.25;42.20
12666;BME280;58531;59.050;17.416;2023-04-30T10:07:03;100732.47;;;10.55;42.83
12666;BME280;58531;59.050;17.416;2023-04-30T10:09:39;100738.31;;;10.62;43.25
12666;BME280;58531;59.050;17.416;2023-04-30T10:12:13;100746.72;;;10.14;41.93
12666;BME280;58531;59.050;17.416;2023-04-30T10:14:44;100755.53;;;10.49;42.57
12666;BME280;58531;59.050;17.416;2023-04-30T10:17:15;100747.53;;;10.95;38.56
12666;BME280;58531;59.050;17.416;2023-04-30T10:19:47;100743.28;;;11.49;41.25
12666;BME280;58531;59.050;17.416;2023-04-30T10:22:15;100745.78;;;11.95;40.38
12666;BME280;58531;59.050;17.416;2023-04-30T10:24:42;100761.63;;;11.60;35.80
12666;BME280;58531;59.050;17.416;2023-04-30T10:27:12;100753.47;;;10.65;39.70
12666;BME280;58531;59.050;17.416;2023-04-30T10:29:39;100747.63;;;9.95;40.11
12666;BME280;58531;59.050;17.416;2023-04-30T10:32:06;100750.72;;;9.69;41.29
12666;BME280;58531;59.050;17.416;2023-04-30T10:34:42;100762.94;;;10.07;39.81
12666;BME280;58531;59.050;17.416;2023-04-30T10:39:56;100760.03;;;11.62;41.12
12666;BME280;58531;59.050;17.416;2023-04-30T10:42:25;100760.91;;;11.38;38.07
12666;BME280;58531;59.050;17.416;2023-04-30T10:44:51;100767.22;;;11.31;38.59
12666;BME280;58531;59.050;17.416;2023-04-30T10:47:18;100767.38;;;10.60;38.36
12666;BME280;58531;59.050;17.416;2023-04-30T10:49:46;100769.31;;;9.97;39.28
12666;BME280;58531;59.050;17.416;2023-04-30T10:52:13;100775.41;;;9.98;39.96
12666;BME280;58531;59.050;17.416;2023-04-30T10:54:51;100767.22;;;10.17;39.00
12666;BME280;58531;59.050;17.416;2023-04-30T10:57:20;100776.28;;;10.07;39.30
12666;BME280;58531;59.050;17.416;2023-04-30T10:59:52;100776.56;;;10.59;43.87
12666;BME280;58531;59.050;17.416;2023-04-30T11:02:19;100751.81;;;11.35;38.19
12666;BME280;58531;59.050;17.416;2023-04-30T11:05:09;100772.31;;;10.95;39.69
12666;BME280;58531;59.050;17.416;2023-04-30T11:07:36;100776.94;;;11.16;39.75
12666;BME280;58531;59.050;17.416;2023-04-30T11:10:06;100770.84;;;11.16;36.67
12666;BME280;58531;59.050;17.416;2023-04-30T11:12:34;100786.84;;;10.94;37.61
12666;BME280;58531;59.050;17.416;2023-04-30T11:15:14;100789.41;;;10.14;39.16
12666;BME280;58531;59.050;17.416;2023-04-30T11:17:42;100786.59;;;9.80;40.04
12666;BME280;58531;59.050;17.416;2023-04-30T11:20:11;100790.81;;;9.65;38.04
12666;BME280;58531;59.050;17.416;2023-04-30T11:22:38;100794.22;;;10.07;38.43
12666;BME280;58531;59.050;17.416;2023-04-30T11:25:07;100800.44;;;10.87;41.17
12666;BME280;58531;59.050;17.416;2023-04-30T11:27:36;100804.88;;;11.37;37.78
12666;BME280;58531;59.050;17.416;2023-04-30T11:30:09;100795.34;;;11.36;35.13
12666;BME280;58531;59.050;17.416;2023-04-30T11:32:38;100787.09;;;11.43;35.88
12666;BME280;58531;59.050;17.416;2023-04-30T11:35:06;100788.00;;;11.91;35.85
12666;BME280;58531;59.050;17.416;2023-04-30T11:37:34;100790.81;;;11.67;34.83
12666;BME280;58531;59.050;17.416;2023-04-30T11:40:04;100808.34;;;11.25;34.97
12666;BME280;58531;59.050;17.416;2023-04-30T11:42:32;100811.63;;;10.36;34.87
12666;BME280;58531;59.050;17.416;2023-04-30T11:45:06;100815.84;;;9.96;34.93
12666;BME280;58531;59.050;17.416;2023-04-30T11:47:41;100799.47;;;10.35;36.73
12666;BME280;58531;59.050;17.416;2023-04-30T11:50:10;100807.94;;;11.14;33.93
12666;BME280;58531;59.050;17.416;2023-04-30T11:52:37;100802.19;;;11.03;32.97
12666;BME280;58531;59.050;17.416;2023-04-30T11:55:06;100798.91;;;10.99;33.78
12666;BME280;58531;59.050;17.416;2023-04-30T11:57:38;100802.59;;;10.80;32.31
12666;BME280;58531;59.050;17.416;2023-04-30T12:00:14;100801.91;;;10.42;34.57
12666;BME280;58531;59.050;17.416;2023-04-30T12:02:42;100810.47;;;10.37;35.52
12666;BME280;58531;59.050;17.416;2023-04-30T12:05:14;100802.66;;;10.18;35.28
12666;BME280;58531;59.050;17.416;2023-04-30T12:07:45;100811.94;;;10.26;36.72
12666;BME280;58531;59.050;17.416;2023-04-30T12:10:13;100805.41;;;10.64;33.47
12666;BME280;58531;59.050;17.416;2023-04-30T12:12:42;100814.97;;;10.86;32.72
12666;BME280;58531;59.050;17.416;2023-04-30T12:15:16;100804.59;;;11.22;33.79
12666;BME280;58531;59.050;17.416;2023-04-30T12:17:43;100800.31;;;11.25;32.75
12666;BME280;58531;59.050;17.416;2023-04-30T12:20:11;100807.94;;;11.14;33.17
12666;BME280;58531;59.050;17.416;2023-04-30T12:22:39;100818.09;;;10.72;33.65
12666;BME280;58531;59.050;17.416;2023-04-30T12:25:08;100825.19;;;10.42;34.69
12666;BME280;58531;59.050;17.416;2023-04-30T12:27:36;100821.97;;;10.22;34.53
12666;BME280;58531;59.050;17.416;2023-04-30T12:30:06;100816.66;;;9.81;36.72
12666;BME280;58531;59.050;17.416;2023-04-30T12:32:39;100816.50;;;10.00;36.22
12666;BME280;58531;59.050;17.416;2023-04-30T12:35:08;100818.84;;;10.73;36.66
12666;BME280;58531;59.050;17.416;2023-04-30T12:37:34;100814.53;;;11.56;37.38
12666;BME280;58531;59.050;17.416;2023-04-30T12:40:02;100813.16;;;11.73;32.41
12666;BME280;58531;59.050;17.416;2023-04-30T12:42:31;100805.84;;;11.94;32.05
12666;BME280;58531;59.050;17.416;2023-04-30T12:44:59;100810.72;;;11.66;33.55
12666;BME280;58531;59.050;17.416;2023-04-30T12:47:26;100819.66;;;11.29;32.60
12666;BME280;58531;59.050;17.416;2023-04-30T12:49:54;100814.44;;;11.47;33.14
12666;BME280;58531;59.050;17.416;2023-04-30T12:52:23;100807.34;;;11.53;33.94